Time;durP1;ratioP1;P1;durP2;ratioP2;P2;SDS_P1;SDS_P2;PMS_P1;PMS_P2;Temp;Humidity;BMP_temperature;BMP_pressure;BME280_temperature;BME280_humidity;BME280_pressure;Samples;Min_cycle;Max_cycle;Signal;HPM_P1;HPM_P2
2022/11/27 00:01:24;;;;;;;20.23;6.35;;;;;;;;;;5007562;28;98874;-69
2022/11/27 00:03:52;;;;;;;27.42;7.45;;;;;;;;;;5007105;28;98316;-69
2022/11/27 00:06:19;;;;;;;24.23;6.75;;;;;;;;;;4987919;28;99598;-69
2022/11/27 00:08:46;;;;;;;19.90;6.70;;;;;;;;;;4988160;28;99995;-69
2022/11/27 00:11:17;;;;;;;17.58;6.85;;;;;;;;;;4988431;28;98385;-69
2022/11/27 00:13:43;;;;;;;12.48;5.65;;;;;;;;;;4987734;28;99550;-69
2022/11/27 00:16:10;;;;;;;18.38;7.15;;;;;;;;;;4988518;28;99996;-70
2022/11/27 00:18:37;;;;;;;26.85;7.53;;;;;;;;;;4988309;28;98318;-69
2022/11/27 00:21:08;;;;;;;20.45;6.45;;;;;;;;;;4994241;28;99452;-69
2022/11/27 00:23:35;;;;;;;18.83;6.43;;;;;;;;;;5006624;28;98816;-69
2022/11/27 00:26:01;;;;;;;21.35;6.60;;;;;;;;;;5007329;28;99696;-69
2022/11/27 00:28:28;;;;;;;14.45;6.30;;;;;;;;;;5007247;28;100162;-69
2022/11/27 00:31:01;;;;;;;13.27;6.45;;;;;;;;;;5007840;28;98376;-69
2022/11/27 00:33:28;;;;;;;19.05;6.78;;;;;;;;;;5007872;28;99491;-69
2022/11/27 00:35:54;;;;;;;19.42;7.53;;;;;;;;;;5007881;28;100289;-69
2022/11/27 00:38:21;;;;;;;22.48;7.03;;;;;;;;;;5002496;28;98350;-69
2022/11/27 00:40:47;;;;;;;15.93;6.50;;;;;;;;;;4986905;28;98568;-69
2022/11/27 00:43:13;;;;;;;22.23;6.10;;;;;;;;;;4991514;28;99985;-69
2022/11/27 00:45:40;;;;;;;26.02;7.00;;;;;;;;;;4987837;28;99697;-68
2022/11/27 00:48:06;;;;;;;20.27;6.43;;;;;;;;;;4996702;28;99094;-69
2022/11/27 00:50:32;;;;;;;17.35;5.85;;;;;;;;;;4989992;28;98316;-68
2022/11/27 00:52:59;;;;;;;20.73;6.88;;;;;;;;;;5007633;28;98701;-69
2022/11/27 00:55:25;;;;;;;17.50;5.97;;;;;;;;;;4998781;28;99255;-69
2022/11/27 00:57:52;;;;;;;19.25;6.68;;;;;;;;;;4987780;28;98266;-69
2022/11/27 01:00:18;;;;;;;21.73;6.97;;;;;;;;;;4987716;28;99758;-69
2022/11/27 01:02:45;;;;;;;16.45;7.13;;;;;;;;;;4986784;28;99950;-69
2022/11/27 01:05:11;;;;;;;24.98;8.13;;;;;;;;;;4997507;28;98186;-70
2022/11/27 01:07:37;;;;;;;16.33;5.90;;;;;;;;;;5007005;28;99964;-70
2022/11/27 01:10:04;;;;;;;15.00;5.80;;;;;;;;;;5006549;28;98252;-69
2022/11/27 01:12:30;;;;;;;21.52;6.95;;;;;;;;;;5000544;28;99948;-69
2022/11/27 01:14:57;;;;;;;17.23;6.50;;;;;;;;;;4986670;28;100136;-69
2022/11/27 01:17:23;;;;;;;16.80;6.05;;;;;;;;;;4986309;28;98270;-69
2022/11/27 01:19:50;;;;;;;12.63;5.65;;;;;;;;;;4991044;28;99540;-69
2022/11/27 01:22:16;;;;;;;18.70;6.05;;;;;;;;;;4987567;28;100152;-69
2022/11/27 01:24:42;;;;;;;17.85;6.55;;;;;;;;;;4989788;28;98220;-69
2022/11/27 01:27:09;;;;;;;13.90;6.22;;;;;;;;;;4992786;28;99946;-70
2022/11/27 01:29:35;;;;;;;9.68;5.82;;;;;;;;;;4988182;28;98632;-70
2022/11/27 01:32:01;;;;;;;19.40;6.85;;;;;;;;;;4986946;28;99774;-69
2022/11/27 01:34:27;;;;;;;18.20;6.15;;;;;;;;;;4986739;28;99972;-69
2022/11/27 01:36:54;;;;;;;20.38;6.03;;;;;;;;;;4987221;28;98341;-69
2022/11/27 01:39:22;;;;;;;18.35;5.60;;;;;;;;;;5006041;28;99337;-69
2022/11/27 01:41:48;;;;;;;22.10;6.53;;;;;;;;;;5006976;28;100344;-68
2022/11/27 01:44:24;;;;;;;16.25;6.25;;;;;;;;;;5006252;28;98267;-69
2022/11/27 01:46:59;;;;;;;14.95;5.53;;;;;;;;;;4999777;28;98808;-70
2022/11/27 01:49:31;;;;;;;23.23;7.95;;;;;;;;;;4987271;28;98254;-70
2022/11/27 01:51:57;;;;;;;11.50;6.00;;;;;;;;;;4985860;28;98581;-69
2022/11/27 01:54:25;;;;;;;19.63;6.47;;;;;;;;;;4986550;28;99306;-69
2022/11/27 01:56:55;;;;;;;19.23;6.43;;;;;;;;;;4987450;28;98342;-69
2022/11/27 01:59:21;;;;;;;18.08;6.75;;;;;;;;;;4986329;28;99555;-69
2022/11/27 02:01:47;;;;;;;13.95;6.03;;;;;;;;;;4989533;28;99859;-69
2022/11/27 02:04:14;;;;;;;19.17;6.47;;;;;;;;;;4986216;28;98356;-69
2022/11/27 02:06:40;;;;;;;20.27;7.38;;;;;;;;;;4985754;28;99525;-69
2022/11/27 02:09:06;;;;;;;16.98;6.10;;;;;;;;;;4990009;28;100031;-69
2022/11/27 02:11:53;;;;;;;21.15;6.20;;;;;;;;;;4986717;28;99351;-68
2022/11/27 02:14:43;;;;;;;16.67;6.88;;;;;;;;;;4985992;28;100158;-69
2022/11/27 02:17:26;;;;;;;12.85;5.97;;;;;;;;;;4986171;28;98299;-69
2022/11/27 02:20:05;;;;;;;16.25;5.78;;;;;;;;;;4989220;28;99308;-69
2022/11/27 02:22:37;;;;;;;14.82;5.47;;;;;;;;;;5004588;28;99169;-69
2022/11/27 02:25:04;;;;;;;;;;;;;;;;;;5007257;28;98176;-69
2022/11/27 02:27:50;;;;;;;17.50;6.07;;;;;;;;;;5005289;28;120840;-70
2022/11/27 02:30:17;;;;;;;14.02;6.30;;;;;;;;;;5005641;28;99896;-69
2022/11/27 02:32:55;;;;;;;26.30;7.82;;;;;;;;;;5009209;28;98248;-69
2022/11/27 02:35:26;;;;;;;22.30;6.32;;;;;;;;;;5005557;28;100214;-69
2022/11/27 02:37:58;;;;;;;13.38;7.13;;;;;;;;;;5005420;28;99268;-70
2022/11/27 02:40:30;;;;;;;18.58;6.35;;;;;;;;;;5005430;28;99537;-69
2022/11/27 02:43:08;;;;;;;10.48;4.88;;;;;;;;;;5006268;28;99004;-70
2022/11/27 02:45:37;;;;;;;12.65;5.57;;;;;;;;;;5006241;28;98425;-69
2022/11/27 02:48:04;;;;;;;17.08;5.47;;;;;;;;;;5004770;28;99491;-69
2022/11/27 02:50:33;;;;;;;16.73;5.55;;;;;;;;;;5001326;28;100034;-69
2022/11/27 02:53:02;;;;;;;17.13;5.82;;;;;;;;;;4985767;28;98479;-69
2022/11/27 02:55:31;;;;;;;12.23;6.22;;;;;;;;;;5002415;28;99470;-69
2022/11/27 02:57:58;;;;;;;17.33;5.78;;;;;;;;;;5005817;28;98328;-69
2022/11/27 03:00:25;;;;;;;14.35;5.60;;;;;;;;;;5005683;28;98658;-68
2022/11/27 03:02:53;;;;;;;18.98;6.22;;;;;;;;;;5004932;28;98989;-69
2022/11/27 03:05:21;;;;;;;13.30;5.35;;;;;;;;;;5006163;28;98347;-71
2022/11/27 03:07:52;;;;;;;15.52;5.90;;;;;;;;;;5005422;28;98606;-69
2022/11/27 03:10:30;;;;;;;11.60;5.20;;;;;;;;;;5004805;28;99938;-69
2022/11/27 03:12:57;;;;;;;9.10;5.43;;;;;;;;;;5005782;28;98199;-69
2022/11/27 03:15:24;;;;;;;12.45;5.20;;;;;;;;;;5004633;28;98730;-69
2022/11/27 03:17:53;;;;;;;9.68;5.22;;;;;;;;;;5008841;28;98313;-69
2022/11/27 03:20:22;;;;;;;21.15;6.00;;;;;;;;;;5007075;28;98562;-69
2022/11/27 03:22:48;;;;;;;18.88;5.88;;;;;;;;;;5007643;28;99318;-70
2022/11/27 03:25:15;;;;;;;14.73;6.10;;;;;;;;;;5008629;28;98410;-69
2022/11/27 03:27:54;;;;;;;16.17;6.22;;;;;;;;;;5008518;28;99501;-70
2022/11/27 03:30:21;;;;;;;15.02;5.47;;;;;;;;;;4988557;28;99137;-69
2022/11/27 03:32:47;;;;;;;11.02;4.93;;;;;;;;;;5008201;28;98323;-69
2022/11/27 03:35:15;;;;;;;17.45;5.90;;;;;;;;;;5009077;28;99467;-69
2022/11/27 03:37:41;;;;;;;15.73;5.53;;;;;;;;;;5011504;28;99977;-70
2022/11/27 03:40:08;;;;;;;11.52;5.70;;;;;;;;;;5009131;28;99645;-69
2022/11/27 03:42:53;;;;;;;12.52;6.18;;;;;;;;;;5007759;28;98550;-69
2022/11/27 03:45:30;;;;;;;18.40;6.68;;;;;;;;;;5001871;28;98315;-70
2022/11/27 03:48:16;;;;;;;15.75;5.97;;;;;;;;;;4988901;28;99506;-70
2022/11/27 03:50:42;;;;;;;17.52;6.00;;;;;;;;;;4987480;28;99311;-69
2022/11/27 03:53:18;;;;;;;18.52;5.80;;;;;;;;;;4988975;28;98299;-69
2022/11/27 03:55:44;;;;;;;13.95;5.95;;;;;;;;;;4988601;28;99541;-69
2022/11/27 03:58:13;;;;;;;12.18;6.20;;;;;;;;;;4987840;28;100337;-69
2022/11/27 04:00:41;;;;;;;13.75;5.53;;;;;;;;;;4991796;28;98371;-69
2022/11/27 04:03:09;;;;;;;16.20;6.60;;;;;;;;;;5000844;28;100006;-69
2022/11/27 04:05:36;;;;;;;13.82;5.30;;;;;;;;;;5007985;28;98550;-69
2022/11/27 04:08:02;;;;;;;10.88;5.40;;;;;;;;;;5008273;28;99549;-69
2022/11/27 04:10:28;;;;;;;10.85;5.50;;;;;;;;;;5007620;28;100003;-69
2022/11/27 04:12:55;;;;;;;18.83;6.90;;;;;;;;;;5007770;28;98296;-69
2022/11/27 04:15:21;;;;;;;16.80;5.93;;;;;;;;;;5008396;28;99463;-69
2022/11/27 04:17:48;;;;;;;8.93;4.38;;;;;;;;;;5006809;28;100287;-70
2022/11/27 04:20:14;;;;;;;14.32;5.90;;;;;;;;;;4988756;28;98279;-70
2022/11/27 04:22:40;;;;;;;9.35;5.22;;;;;;;;;;4991288;28;99521;-70
2022/11/27 04:25:07;;;;;;;12.30;5.40;;;;;;;;;;4988481;28;98257;-70
2022/11/27 04:27:33;;;;;;;9.77;4.75;;;;;;;;;;4987708;28;99485;-70
2022/11/27 04:29:59;;;;;;;13.18;6.00;;;;;;;;;;5003833;28;100296;-70
2022/11/27 04:32:26;;;;;;;9.63;4.85;;;;;;;;;;5008056;28;98448;-68
2022/11/27 04:34:52;;;;;;;13.75;5.65;;;;;;;;;;5006492;28;99376;-69
2022/11/27 04:37:18;;;;;;;14.20;5.55;;;;;;;;;;4998579;28;99248;-69
2022/11/27 04:39:45;;;;;;;14.77;5.95;;;;;;;;;;5006911;28;98576;-70
2022/11/27 04:42:11;;;;;;;15.63;5.10;;;;;;;;;;5008002;28;99645;-70
2022/11/27 04:44:37;;;;;;;16.33;5.38;;;;;;;;;;5010811;28;99934;-70
2022/11/27 04:47:04;;;;;;;9.68;4.32;;;;;;;;;;5006784;28;99876;-71
2022/11/27 04:49:31;;;;;;;13.70;5.43;;;;;;;;;;5007422;28;99956;-70
2022/11/27 04:51:57;;;;;;;15.88;6.57;;;;;;;;;;5007639;28;98342;-70
2022/11/27 04:54:23;;;;;;;12.18;5.60;;;;;;;;;;4992526;28;99528;-69
2022/11/27 04:56:50;;;;;;;11.32;4.32;;;;;;;;;;4987648;28;100002;-68
2022/11/27 04:59:16;;;;;;;13.82;5.13;;;;;;;;;;4987569;28;98306;-69
2022/11/27 05:01:42;;;;;;;7.25;4.45;;;;;;;;;;4987055;28;99483;-68
2022/11/27 05:04:09;;;;;;;9.35;4.20;;;;;;;;;;4987533;28;100151;-69
2022/11/27 05:06:35;;;;;;;11.70;4.70;;;;;;;;;;4990954;28;98635;-70
2022/11/27 05:09:01;;;;;;;10.32;3.83;;;;;;;;;;4986686;28;100464;-69
2022/11/27 05:11:28;;;;;;;9.25;5.05;;;;;;;;;;5001924;28;99266;-69
2022/11/27 05:16:40;;;;;;;12.02;4.60;;;;;;;;;;5006197;28;99218;-69
2022/11/27 05:19:08;;;;;;;8.75;4.63;;;;;;;;;;5007440;28;98406;-69
2022/11/27 05:21:35;;;;;;;8.82;3.70;;;;;;;;;;5007030;28;99551;-69
2022/11/27 05:24:01;;;;;;;10.93;4.60;;;;;;;;;;5005947;28;99002;-69
2022/11/27 05:26:28;;;;;;;10.50;4.55;;;;;;;;;;5010163;28;98336;-69
2022/11/27 05:28:54;;;;;;;11.05;4.75;;;;;;;;;;4996918;28;100056;-69
2022/11/27 05:31:20;;;;;;;10.68;4.97;;;;;;;;;;4987574;28;98297;-69
2022/11/27 05:33:47;;;;;;;8.57;4.68;;;;;;;;;;4986969;28;100479;-69
2022/11/27 05:36:13;;;;;;;9.75;4.32;;;;;;;;;;4986257;28;100184;-69
2022/11/27 05:38:40;;;;;;;8.90;4.20;;;;;;;;;;5001566;28;99322;-70
2022/11/27 05:41:06;;;;;;;13.73;5.38;;;;;;;;;;5006726;28;99820;-70
2022/11/27 05:43:32;;;;;;;12.07;4.20;;;;;;;;;;5005959;28;100165;-70
2022/11/27 05:46:02;;;;;;;6.07;4.28;;;;;;;;;;4987214;28;98374;-70
2022/11/27 05:48:29;;;;;;;5.28;3.92;;;;;;;;;;4988990;28;99679;-69
2022/11/27 05:50:56;;;;;;;6.43;4.15;;;;;;;;;;4986606;28;98320;-69
2022/11/27 05:53:22;;;;;;;8.85;3.85;;;;;;;;;;4987288;28;99464;-70
2022/11/27 05:55:48;;;;;;;10.07;4.50;;;;;;;;;;4987016;28;100003;-69
2022/11/27 05:58:15;;;;;;;9.40;4.25;;;;;;;;;;4989433;28;98341;-69
2022/11/27 06:00:41;;;;;;;9.02;4.38;;;;;;;;;;5006666;28;99471;-69
2022/11/27 06:03:07;;;;;;;18.33;4.20;;;;;;;;;;4986828;28;100075;-69
2022/11/27 06:05:37;;;;;;;9.68;3.67;;;;;;;;;;4986115;28;98525;-69
2022/11/27 06:08:03;;;;;;;9.63;4.22;;;;;;;;;;4986730;28;98703;-69
2022/11/27 06:10:30;;;;;;;10.30;4.45;;;;;;;;;;4989807;28;99983;-70
2022/11/27 06:12:56;;;;;;;9.55;3.88;;;;;;;;;;4985513;28;99350;-69
2022/11/27 06:15:22;;;;;;;6.80;3.78;;;;;;;;;;4987604;28;100058;-69
2022/11/27 06:17:49;;;;;;;8.45;4.13;;;;;;;;;;4993188;28;98344;-69
2022/11/27 06:20:15;;;;;;;16.27;4.88;;;;;;;;;;4985349;28;98442;-69
2022/11/27 06:22:42;;;;;;;9.52;3.90;;;;;;;;;;4998919;28;99262;-69
2022/11/27 06:25:08;;;;;;;9.80;4.20;;;;;;;;;;5006415;28;98384;-69
2022/11/27 06:27:35;;;;;;;7.32;3.88;;;;;;;;;;5005957;28;99977;-69
2022/11/27 06:30:02;;;;;;;10.25;4.20;;;;;;;;;;4991266;28;100311;-68
2022/11/27 06:32:29;;;;;;;10.48;4.18;;;;;;;;;;5009013;28;98462;-68
2022/11/27 06:34:55;;;;;;;8.88;4.60;;;;;;;;;;5004010;28;100135;-69
2022/11/27 06:37:22;;;;;;;12.55;5.07;;;;;;;;;;4990231;28;98261;-69
2022/11/27 06:39:48;;;;;;;10.32;3.95;;;;;;;;;;5005880;28;99352;-70
2022/11/27 06:42:14;;;;;;;6.95;4.10;;;;;;;;;;5005608;28;99822;-69
2022/11/27 06:44:41;;;;;;;11.48;3.90;;;;;;;;;;5005827;28;98314;-69
2022/11/27 06:47:08;;;;;;;9.48;4.10;;;;;;;;;;5005694;28;99679;-70
2022/11/27 06:49:34;;;;;;;6.85;4.30;;;;;;;;;;5005468;28;99443;-70
2022/11/27 06:52:00;;;;;;;12.20;4.30;;;;;;;;;;5003586;28;98263;-69
2022/11/27 06:54:27;;;;;;;5.65;4.13;;;;;;;;;;4991791;28;99609;-70
2022/11/27 06:56:53;;;;;;;6.18;3.80;;;;;;;;;;4989212;28;98305;-69
2022/11/27 06:59:19;;;;;;;8.43;4.78;;;;;;;;;;4990384;28;100957;-70
2022/11/27 07:01:46;;;;;;;14.13;4.55;;;;;;;;;;4987976;28;100166;-69
2022/11/27 07:04:14;;;;;;;12.85;4.13;;;;;;;;;;4989902;28;98200;-69
2022/11/27 07:06:41;;;;;;;6.78;3.85;;;;;;;;;;4989607;28;99925;-69
2022/11/27 07:09:08;;;;;;;12.10;4.55;;;;;;;;;;4992611;28;99930;-69
2022/11/27 07:11:35;;;;;;;7.38;4.72;;;;;;;;;;5009327;28;98866;-69
2022/11/27 07:14:03;;;;;;;12.75;4.13;;;;;;;;;;5009321;28;99508;-69
2022/11/27 07:16:30;;;;;;;8.82;5.20;;;;;;;;;;5011097;28;99254;-70
2022/11/27 07:18:58;;;;;;;8.75;4.25;;;;;;;;;;5009948;28;99289;-70
2022/11/27 07:21:25;;;;;;;9.90;4.60;;;;;;;;;;5008680;28;99905;-70
2022/11/27 07:23:51;;;;;;;9.43;4.30;;;;;;;;;;5008816;28;98299;-70
2022/11/27 07:26:19;;;;;;;10.88;4.38;;;;;;;;;;5003391;28;99452;-70
2022/11/27 07:28:46;;;;;;;9.07;3.97;;;;;;;;;;4988669;28;100018;-70
2022/11/27 07:31:14;;;;;;;7.55;3.92;;;;;;;;;;4988663;28;98321;-70
2022/11/27 07:33:40;;;;;;;6.75;4.07;;;;;;;;;;5004169;28;99714;-70
2022/11/27 07:36:09;;;;;;;12.45;4.43;;;;;;;;;;5011639;28;99984;-70
2022/11/27 07:38:35;;;;;;;7.70;4.15;;;;;;;;;;4996823;28;99480;-70
2022/11/27 07:41:02;;;;;;;11.02;4.10;;;;;;;;;;5005372;28;100372;-70
2022/11/27 07:43:30;;;;;;;11.00;4.07;;;;;;;;;;5007722;28;98359;-70
2022/11/27 07:45:56;;;;;;;9.65;4.63;;;;;;;;;;5007923;28;99543;-69
2022/11/27 07:48:23;;;;;;;12.38;5.47;;;;;;;;;;5006618;28;99606;-70
2022/11/27 07:50:49;;;;;;;7.22;3.85;;;;;;;;;;5004526;28;98375;-70
2022/11/27 07:53:16;;;;;;;8.48;4.45;;;;;;;;;;5000801;28;99824;-70
2022/11/27 07:55:42;;;;;;;6.57;3.90;;;;;;;;;;5007168;28;99928;-70
2022/11/27 07:58:08;;;;;;;6.40;3.92;;;;;;;;;;5005704;28;98465;-70
2022/11/27 08:00:35;;;;;;;7.88;4.18;;;;;;;;;;5010341;28;99189;-71
2022/11/27 08:03:02;;;;;;;13.20;5.15;;;;;;;;;;5002757;28;98319;-70
2022/11/27 08:05:28;;;;;;;11.07;4.85;;;;;;;;;;4994582;28;98550;-70
2022/11/27 08:07:55;;;;;;;11.98;4.82;;;;;;;;;;5008776;28;100715;-70
2022/11/27 08:10:21;;;;;;;6.13;4.32;;;;;;;;;;5008529;28;98449;-71
2022/11/27 08:12:47;;;;;;;14.27;4.82;;;;;;;;;;5007080;28;98758;-71
2022/11/27 08:15:14;;;;;;;10.52;4.68;;;;;;;;;;5007281;28;99092;-72
2022/11/27 08:17:40;;;;;;;7.70;4.63;;;;;;;;;;5008860;28;98782;-69
2022/11/27 08:20:06;;;;;;;10.93;4.40;;;;;;;;;;5010837;28;99237;-71
2022/11/27 08:22:33;;;;;;;9.43;5.20;;;;;;;;;;5007495;28;98287;-71
2022/11/27 08:24:59;;;;;;;9.68;4.93;;;;;;;;;;5006459;28;99727;-72
2022/11/27 08:27:26;;;;;;;11.95;4.85;;;;;;;;;;5005553;28;99582;-71
2022/11/27 08:29:52;;;;;;;9.07;4.78;;;;;;;;;;5001308;28;98405;-70
2022/11/27 08:32:18;;;;;;;8.38;4.82;;;;;;;;;;5002792;28;99462;-69
2022/11/27 08:34:44;;;;;;;12.38;4.95;;;;;;;;;;5006149;28;100149;-70
2022/11/27 08:37:11;;;;;;;8.80;4.13;;;;;;;;;;4997970;28;99586;-71
2022/11/27 08:39:37;;;;;;;9.68;5.30;;;;;;;;;;5004299;28;99593;-70
2022/11/27 08:42:03;;;;;;;9.30;4.63;;;;;;;;;;5006269;28;100118;-69
2022/11/27 08:44:30;;;;;;;7.90;4.80;;;;;;;;;;5000750;28;99446;-71
2022/11/27 08:46:56;;;;;;;9.27;4.88;;;;;;;;;;4999095;28;99291;-70
2022/11/27 08:49:22;;;;;;;10.10;5.05;;;;;;;;;;5005016;28;98256;-71
2022/11/27 08:51:49;;;;;;;15.23;5.03;;;;;;;;;;4999081;28;99944;-70
2022/11/27 08:54:15;;;;;;;10.90;4.40;;;;;;;;;;5003183;28;99890;-70
2022/11/27 08:56:41;;;;;;;13.57;4.90;;;;;;;;;;5006179;28;98899;-71
2022/11/27 08:59:08;;;;;;;13.77;5.25;;;;;;;;;;5003481;28;99441;-71
2022/11/27 09:01:34;;;;;;;11.55;5.50;;;;;;;;;;5000936;28;99921;-71
2022/11/27 09:04:00;;;;;;;9.65;5.05;;;;;;;;;;5003489;28;99893;-70
2022/11/27 09:06:28;;;;;;;12.25;5.90;;;;;;;;;;5005522;28;99470;-71
2022/11/27 09:08:55;;;;;;;11.07;5.22;;;;;;;;;;4995990;28;98422;-70
2022/11/27 09:11:23;;;;;;;10.88;6.35;;;;;;;;;;4995087;28;98184;-70
2022/11/27 09:13:49;;;;;;;13.13;5.50;;;;;;;;;;5003301;28;99726;-71
2022/11/27 09:16:17;;;;;;;8.23;4.97;;;;;;;;;;4998291;28;98840;-70
2022/11/27 09:18:44;;;;;;;14.50;5.70;;;;;;;;;;5006390;28;98483;-70
2022/11/27 09:21:11;;;;;;;13.45;5.70;;;;;;;;;;5006556;28;99912;-70
2022/11/27 09:23:38;;;;;;;11.23;5.18;;;;;;;;;;5007104;28;98314;-70
2022/11/27 09:26:06;;;;;;;13.77;7.03;;;;;;;;;;5010462;28;99525;-71
2022/11/27 09:28:33;;;;;;;12.38;6.70;;;;;;;;;;5004892;28;98417;-71
2022/11/27 09:31:01;;;;;;;12.23;6.53;;;;;;;;;;5004477;28;99931;-70
2022/11/27 09:33:28;;;;;;;8.73;5.78;;;;;;;;;;4990260;28;100061;-71
2022/11/27 09:35:54;;;;;;;8.35;5.97;;;;;;;;;;5006532;28;98864;-71
2022/11/27 09:38:20;;;;;;;11.93;6.35;;;;;;;;;;5006473;28;98660;-71
2022/11/27 09:40:48;;;;;;;13.50;5.68;;;;;;;;;;5006736;28;100080;-72
2022/11/27 09:43:14;;;;;;;10.80;6.10;;;;;;;;;;4997239;28;98321;-70
2022/11/27 09:45:44;;;;;;;11.52;6.20;;;;;;;;;;5002574;28;99681;-71
2022/11/27 09:48:14;;;;;;;7.85;6.43;;;;;;;;;;5002871;28;98432;-72
2022/11/27 09:50:48;;;;;;;9.57;6.88;;;;;;;;;;4986352;28;99844;-71
2022/11/27 09:53:21;;;;;;;11.43;5.85;;;;;;;;;;4986006;28;100047;-71
2022/11/27 09:55:48;;;;;;;15.55;6.80;;;;;;;;;;4988330;28;98198;-71
2022/11/27 09:58:17;;;;;;;12.10;6.55;;;;;;;;;;5005623;28;99518;-71
2022/11/27 10:00:44;;;;;;;13.55;5.50;;;;;;;;;;5006210;28;100573;-72
2022/11/27 10:03:14;;;;;;;9.70;5.80;;;;;;;;;;5006547;28;98304;-72
2022/11/27 10:05:46;;;;;;;10.57;5.65;;;;;;;;;;4991162;28;99710;-72
2022/11/27 10:08:30;;;;;;;6.80;5.63;;;;;;;;;;4988747;28;98994;-72
2022/11/27 10:10:56;;;;;;;9.20;6.65;;;;;;;;;;4986089;28;99623;-72
2022/11/27 10:13:29;;;;;;;11.02;7.43;;;;;;;;;;4986315;28;99278;-72
2022/11/27 10:15:57;;;;;;;9.98;6.82;;;;;;;;;;4986450;28;98802;-71
2022/11/27 10:18:42;;;;;;;8.73;6.07;;;;;;;;;;4984702;28;99907;-71
2022/11/27 10:21:13;;;;;;;11.13;6.72;;;;;;;;;;4986301;28;99609;-71
2022/11/27 10:23:40;;;;;;;11.98;6.40;;;;;;;;;;4985955;28;98242;-72
2022/11/27 10:26:12;;;;;;;11.82;6.75;;;;;;;;;;4985719;28;99383;-72
2022/11/27 10:28:59;;;;;;;14.85;6.60;;;;;;;;;;5003005;28;99888;-72
2022/11/27 10:31:25;;;;;;;12.88;6.70;;;;;;;;;;5012440;28;98594;-72
2022/11/27 10:33:53;;;;;;;12.05;6.28;;;;;;;;;;5002331;28;99551;-71
2022/11/27 10:36:40;;;;;;;11.40;5.70;;;;;;;;;;4990355;28;98378;-70
2022/11/27 10:39:13;;;;;;;7.43;5.70;;;;;;;;;;4990081;28;99509;-71
2022/11/27 10:41:55;;;;;;;14.55;6.63;;;;;;;;;;5001887;28;99914;-71
2022/11/27 10:44:28;;;;;;;22.13;7.53;;;;;;;;;;4988943;28;98354;-73
2022/11/27 10:47:00;;;;;;;11.05;6.32;;;;;;;;;;5006550;28;99372;-72
2022/11/27 10:49:26;;;;;;;11.50;6.50;;;;;;;;;;5009351;28;100220;-71
2022/11/27 10:51:52;;;;;;;9.55;6.65;;;;;;;;;;5009049;28;98637;-71
2022/11/27 10:54:25;;;;;;;12.40;6.03;;;;;;;;;;5011968;28;99447;-72
2022/11/27 10:56:52;;;;;;;;;;;;;;;;;;5009569;28;98559;-73
2022/11/27 10:59:21;;;;;;;9.93;6.10;;;;;;;;;;4995759;28;128960;-72
2022/11/27 11:01:49;;;;;;;7.55;6.32;;;;;;;;;;4988594;28;98943;-72
2022/11/27 11:04:20;;;;;;;14.00;7.05;;;;;;;;;;4989577;28;98732;-72
2022/11/27 11:07:21;;;;;;;10.90;6.85;;;;;;;;;;4989057;28;99338;-71
2022/11/27 11:09:48;;;;;;;12.88;6.97;;;;;;;;;;4988477;28;100101;-71
2022/11/27 11:12:19;;;;;;;12.50;7.13;;;;;;;;;;4989107;28;98458;-71
2022/11/27 11:14:50;;;;;;;9.98;6.70;;;;;;;;;;4988172;28;99775;-71
2022/11/27 11:17:17;;;;;;;11.68;6.72;;;;;;;;;;4997902;28;100404;-72
2022/11/27 11:19:44;;;;;;;12.95;6.82;;;;;;;;;;4989222;28;99642;-73
2022/11/27 11:22:13;;;;;;;10.43;7.25;;;;;;;;;;4991544;28;102184;-72
2022/11/27 11:24:44;;;;;;;8.00;6.45;;;;;;;;;;4989233;28;98680;-72
2022/11/27 11:27:16;;;;;;;9.82;6.68;;;;;;;;;;4989496;28;99695;-72
2022/11/27 11:29:43;;;;;;;13.90;7.13;;;;;;;;;;4987668;28;98990;-72
2022/11/27 11:32:09;;;;;;;10.00;6.32;;;;;;;;;;4988538;28;98270;-72
2022/11/27 11:34:40;;;;;;;9.90;6.43;;;;;;;;;;4987571;28;100235;-72
2022/11/27 11:37:17;;;;;;;13.20;7.67;;;;;;;;;;4989558;28;99308;-72
2022/11/27 11:39:44;;;;;;;9.65;6.22;;;;;;;;;;4991208;28;98450;-72
2022/11/27 11:42:21;;;;;;;8.70;6.57;;;;;;;;;;4988040;28;100154;-71
2022/11/27 11:44:53;;;;;;;11.63;6.60;;;;;;;;;;4988684;28;98488;-72
2022/11/27 11:47:22;;;;;;;11.90;7.07;;;;;;;;;;4988694;28;99964;-72
2022/11/27 11:49:49;;;;;;;10.38;6.50;;;;;;;;;;4990745;28;99915;-71
2022/11/27 11:52:21;;;;;;;11.52;7.65;;;;;;;;;;5000880;28;98390;-71
2022/11/27 11:54:58;;;;;;;11.88;7.00;;;;;;;;;;4990631;28;100773;-71
2022/11/27 11:57:39;;;;;;;9.55;6.85;;;;;;;;;;4996730;28;100207;-71
2022/11/27 12:00:11;;;;;;;14.77;6.68;;;;;;;;;;5010197;28;98636;-72
2022/11/27 12:02:39;;;;;;;12.10;7.43;;;;;;;;;;5008359;28;98897;-71
2022/11/27 12:05:08;;;;;;;11.23;7.40;;;;;;;;;;5006507;28;98156;-71
2022/11/27 12:07:45;;;;;;;11.82;7.05;;;;;;;;;;5008264;28;99805;-72
2022/11/27 12:10:23;;;;;;;13.35;7.18;;;;;;;;;;5006931;28;99149;-71
2022/11/27 12:13:08;;;;;;;14.45;7.47;;;;;;;;;;5007919;28;98655;-71
2022/11/27 12:15:42;;;;;;;8.50;6.28;;;;;;;;;;5007501;28;98868;-72
2022/11/27 12:18:17;;;;;;;11.38;6.57;;;;;;;;;;5007449;28;100083;-71
2022/11/27 12:20:55;;;;;;;9.27;6.30;;;;;;;;;;5007749;28;98145;-72
2022/11/27 12:23:24;;;;;;;10.13;6.85;;;;;;;;;;5011139;28;98955;-72
2022/11/27 12:25:51;;;;;;;8.73;6.00;;;;;;;;;;5006396;28;98379;-71
2022/11/27 12:28:27;;;;;;;11.32;7.03;;;;;;;;;;5007730;28;98730;-71
2022/11/27 12:31:00;;;;;;;10.88;6.70;;;;;;;;;;5007137;28;100066;-72
2022/11/27 12:33:43;;;;;;;10.80;6.78;;;;;;;;;;5007650;28;98114;-71
2022/11/27 12:36:09;;;;;;;10.57;6.30;;;;;;;;;;5001326;28;99357;-71
2022/11/27 12:38:44;;;;;;;11.43;6.50;;;;;;;;;;4986460;28;99333;-70
2022/11/27 12:41:22;;;;;;;9.98;6.68;;;;;;;;;;4987805;28;98407;-70
2022/11/27 12:43:51;;;;;;;14.00;6.65;;;;;;;;;;4988178;28;99383;-70
2022/11/27 12:46:21;;;;;;;9.95;7.00;;;;;;;;;;5000606;28;99137;-71
2022/11/27 12:48:50;;;;;;;12.13;6.38;;;;;;;;;;4986926;28;99577;-70
2022/11/27 12:51:16;;;;;;;9.10;6.78;;;;;;;;;;5000704;28;100084;-69
2022/11/27 12:53:46;;;;;;;12.20;6.85;;;;;;;;;;5002614;28;98893;-70
2022/11/27 12:56:24;;;;;;;8.95;6.40;;;;;;;;;;5003943;28;99430;-71
2022/11/27 12:58:53;;;;;;;9.45;7.05;;;;;;;;;;5007398;28;100377;-71
2022/11/27 13:01:41;;;;;;;11.20;7.28;;;;;;;;;;5007099;28;98893;-71
2022/11/27 13:04:20;;;;;;;12.88;7.30;;;;;;;;;;5007546;28;99797;-71
2022/11/27 13:07:01;;;;;;;12.25;6.38;;;;;;;;;;5006489;28;99829;-71
2022/11/27 13:09:48;;;;;;;10.57;6.72;;;;;;;;;;5011241;28;99126;-71
2022/11/27 13:12:44;;;;;;;9.15;6.55;;;;;;;;;;4990136;28;99004;-70
2022/11/27 13:15:29;;;;;;;8.10;7.05;;;;;;;;;;4964615;28;99980;-71
2022/11/27 13:18:02;;;;;;;12.75;6.95;;;;;;;;;;4986707;28;99563;-70
2022/11/27 13:20:32;;;;;;;10.15;7.43;;;;;;;;;;4986896;28;98869;-70
2022/11/27 13:22:58;;;;;;;11.65;7.80;;;;;;;;;;4987229;28;98305;-71
2022/11/27 13:25:25;;;;;;;10.63;7.28;;;;;;;;;;4987219;28;99503;-71
2022/11/27 13:27:52;;;;;;;13.95;7.65;;;;;;;;;;4985417;28;99255;-70
2022/11/27 13:30:23;;;;;;;9.38;7.00;;;;;;;;;;4991110;28;98345;-71
2022/11/27 13:32:52;;;;;;;10.88;6.72;;;;;;;;;;4989936;28;98906;-71
2022/11/27 13:35:21;;;;;;;13.73;7.90;;;;;;;;;;4986789;28;98994;-71
2022/11/27 13:37:52;;;;;;;13.80;7.25;;;;;;;;;;4987941;28;99446;-71
2022/11/27 13:40:26;;;;;;;9.07;6.57;;;;;;;;;;4986991;28;100075;-71
2022/11/27 13:42:54;;;;;;;10.32;7.03;;;;;;;;;;4985568;28;98408;-71
2022/11/27 13:45:22;;;;;;;7.68;6.97;;;;;;;;;;4997449;28;99428;-70
2022/11/27 13:47:49;;;;;;;9.40;7.25;;;;;;;;;;4986217;28;100032;-71
2022/11/27 13:50:16;;;;;;;8.82;7.28;;;;;;;;;;4997847;28;98924;-72
2022/11/27 13:52:56;;;;;;;9.68;7.45;;;;;;;;;;5004043;28;99419;-72
2022/11/27 13:55:24;;;;;;;9.57;6.95;;;;;;;;;;5008125;28;99077;-73
2022/11/27 13:57:52;;;;;;;11.40;8.10;;;;;;;;;;4992202;28;100193;-71
2022/11/27 14:00:29;;;;;;;11.23;7.28;;;;;;;;;;5005530;28;100713;-72
2022/11/27 14:02:55;;;;;;;13.63;7.68;;;;;;;;;;4999334;28;98695;-73
2022/11/27 14:05:32;;;;;;;10.15;6.97;;;;;;;;;;5004950;28;98591;-73
2022/11/27 14:07:59;;;;;;;13.48;7.57;;;;;;;;;;5003237;28;100082;-71
2022/11/27 14:10:27;;;;;;;11.10;6.63;;;;;;;;;;5004306;28;98538;-70
2022/11/27 14:13:04;;;;;;;11.25;7.68;;;;;;;;;;4992173;28;98668;-71
2022/11/27 14:15:35;;;;;;;10.52;7.13;;;;;;;;;;5006526;28;99167;-71
2022/11/27 14:18:18;;;;;;;9.57;7.47;;;;;;;;;;4989251;28;99683;-71
2022/11/27 14:20:50;;;;;;;10.25;7.70;;;;;;;;;;4986426;28;99851;-73
2022/11/27 14:23:33;;;;;;;8.95;7.43;;;;;;;;;;4991990;28;98239;-71
2022/11/27 14:26:03;;;;;;;9.27;7.95;;;;;;;;;;5006094;28;99841;-71
2022/11/27 14:28:31;;;;;;;11.88;8.13;;;;;;;;;;5006187;28;100067;-71
2022/11/27 14:30:59;;;;;;;10.13;8.60;;;;;;;;;;5004150;28;98341;-73
2022/11/27 14:33:29;;;;;;;9.82;8.23;;;;;;;;;;5003069;28;98660;-71
2022/11/27 14:35:57;;;;;;;12.07;8.85;;;;;;;;;;4997819;28;100116;-71
2022/11/27 14:38:24;;;;;;;14.40;8.18;;;;;;;;;;5007672;28;100121;-72
2022/11/27 14:40:54;;;;;;;9.48;8.25;;;;;;;;;;5003639;28;100226;-71
2022/11/27 14:43:25;;;;;;;14.07;8.52;;;;;;;;;;5003933;28;98741;-71
2022/11/27 14:45:53;;;;;;;9.07;8.15;;;;;;;;;;4999727;28;99616;-72
2022/11/27 14:48:21;;;;;;;11.20;8.68;;;;;;;;;;4985917;28;99931;-72